createdAt,value
2018-05-01T00:00:10.955Z,1000.88
2018-05-01T00:01:10.915Z,1000.93
2018-05-01T00:02:10.865Z,1000.98
2018-05-01T00:03:10.820Z,1001.04
2018-05-01T00:04:10.776Z,1001.11
2018-05-01T00:05:10.731Z,1001.18
2018-05-01T00:06:10.686Z,1001.16
2018-05-01T00:07:10.641Z,1001.15
2018-05-01T00:08:10.597Z,1001.14
2018-05-01T00:09:10.556Z,1001.13
2018-05-01T00:10:10.507Z,1001.12
2018-05-01T00:11:10.462Z,1001.06
2018-05-01T00:12:10.417Z,1001.02
2018-05-01T00:13:10.374Z,1000.98
2018-05-01T00:14:10.328Z,1000.90
2018-05-01T00:15:10.284Z,1000.90
2018-05-01T00:16:10.239Z,1000.87
2018-05-01T00:17:10.195Z,1000.92
2018-05-01T00:18:10.149Z,1001.02
2018-05-01T00:19:10.105Z,1001.09
2018-05-01T00:20:10.061Z,1001.18
2018-05-01T00:21:10.016Z,1001.21
2018-05-01T00:22:09.970Z,1001.25
2018-05-01T00:23:09.925Z,1001.21
2018-05-01T00:24:09.881Z,1001.23
2018-05-01T00:25:09.837Z,1001.19
2018-05-01T00:26:09.791Z,1001.21
2018-05-01T00:27:09.750Z,1001.22
2018-05-01T00:28:09.704Z,1001.27
2018-05-01T00:29:09.666Z,1001.23
2018-05-01T00:30:09.612Z,1001.34
2018-05-01T00:31:09.567Z,1001.32
2018-05-01T00:32:09.523Z,1001.37
2018-05-01T00:33:09.532Z,1001.37
2018-05-01T00:34:09.433Z,1001.37
2018-05-01T00:35:09.388Z,1001.37
2018-05-01T00:36:09.345Z,1001.44
2018-05-01T00:37:09.298Z,1001.41
2018-05-01T00:38:09.253Z,1001.37
2018-05-01T00:39:09.213Z,1001.39
2018-05-01T00:40:09.164Z,1001.38
2018-05-01T00:41:09.117Z,1001.41
2018-05-01T00:42:09.072Z,1001.47
2018-05-01T00:43:09.027Z,1001.46
2018-05-01T00:44:08.982Z,1001.50
2018-05-01T00:45:08.943Z,1001.58
2018-05-01T00:46:08.890Z,1001.63
2018-05-01T00:47:08.846Z,1001.70
2018-05-01T00:48:08.800Z,1001.78
2018-05-01T00:49:08.755Z,1001.87
2018-05-01T00:50:08.709Z,1001.97
2018-05-01T00:51:08.663Z,1001.90
2018-05-01T00:52:08.619Z,1001.93
2018-05-01T00:53:08.573Z,1001.87
2018-05-01T00:54:08.527Z,1001.84
2018-05-01T00:55:08.482Z,1001.82
2018-05-01T00:56:08.439Z,1001.79
2018-05-01T00:57:08.391Z,1001.70
2018-05-01T00:58:08.346Z,1001.70
2018-05-01T00:59:08.300Z,1001.71
2018-05-01T01:00:08.255Z,1001.70
2018-05-01T01:01:08.222Z,1001.74
2018-05-01T01:02:08.164Z,1001.69
2018-05-01T01:03:08.118Z,1001.61
2018-05-01T01:04:08.073Z,1001.62
2018-05-01T01:05:08.028Z,1001.58
2018-05-01T01:06:07.990Z,1001.59
2018-05-01T01:07:07.936Z,1001.57
2018-05-01T01:08:07.891Z,1001.56
2018-05-01T01:09:07.846Z,1001.57
2018-05-01T01:10:07.800Z,1001.55
2018-05-01T01:11:07.755Z,1001.56
2018-05-01T01:12:07.711Z,1001.60
2018-05-01T01:13:07.665Z,1001.50
2018-05-01T01:14:07.619Z,1001.56
2018-05-01T01:15:07.573Z,1001.57
2018-05-01T01:16:07.529Z,1001.56
2018-05-01T01:17:07.483Z,1001.56
2018-05-01T01:18:07.438Z,1001.65
2018-05-01T01:19:07.399Z,1001.56
2018-05-01T01:20:07.349Z,1001.58
2018-05-01T01:21:07.303Z,1001.54
2018-05-01T01:22:07.256Z,1001.57
2018-05-01T01:23:07.211Z,1001.51
2018-05-01T01:24:07.166Z,1001.54
2018-05-01T01:25:07.124Z,1001.52
2018-05-01T01:26:07.075Z,1001.51
2018-05-01T01:27:07.030Z,1001.59
2018-05-01T01:28:06.985Z,1001.58
2018-05-01T01:29:06.940Z,1001.60
2018-05-01T01:30:06.894Z,1001.54
2018-05-01T01:31:06.849Z,1001.56
2018-05-01T01:32:06.804Z,1001.60
2018-05-01T01:33:06.759Z,1001.62
2018-05-01T01:34:06.713Z,1001.60
2018-05-01T01:35:06.668Z,1001.65
2018-05-01T01:36:06.623Z,1001.53
2018-05-01T01:37:06.578Z,1001.47
2018-05-01T01:38:06.532Z,1001.44
2018-05-01T01:39:06.489Z,1001.50
2018-05-01T01:40:06.442Z,1001.48
2018-05-01T01:41:06.397Z,1001.50
2018-05-01T01:42:06.352Z,1001.49
2018-05-01T01:43:06.307Z,1001.50
2018-05-01T01:44:06.261Z,1001.50
2018-05-01T01:45:06.217Z,1001.49
2018-05-01T01:46:06.170Z,1001.56
2018-05-01T01:47:06.125Z,1001.51
2018-05-01T01:48:06.081Z,1001.59
2018-05-01T01:49:06.039Z,1001.63
2018-05-01T01:50:05.990Z,1001.67
2018-05-01T01:51:05.945Z,1001.58
2018-05-01T01:52:05.900Z,1001.56
2018-05-01T01:53:05.855Z,1001.58
2018-05-01T01:54:05.809Z,1001.61
2018-05-01T01:55:05.764Z,1001.61
2018-05-01T01:56:05.719Z,1001.64
2018-05-01T01:57:05.674Z,1001.71
2018-05-01T01:58:05.628Z,1001.74
2018-05-01T01:59:05.633Z,1001.74
2018-05-01T02:00:05.538Z,1001.73
2018-05-01T02:01:05.493Z,1001.73
2018-05-01T02:02:05.452Z,1001.72
2018-05-01T02:03:05.434Z,1001.74
2018-05-01T02:04:05.357Z,1001.73
2018-05-01T02:05:05.314Z,1001.68
2018-05-01T02:06:05.267Z,1001.71
2018-05-01T02:07:05.221Z,1001.76
2018-05-01T02:08:05.176Z,1001.72
2018-05-01T02:09:05.132Z,1001.73
2018-05-01T02:10:05.086Z,1001.71
2018-05-01T02:11:05.041Z,1001.66
2018-05-01T02:12:05.001Z,1001.67
2018-05-01T02:13:04.951Z,1001.65
2018-05-01T02:14:04.905Z,1001.63
2018-05-01T02:15:04.860Z,1001.61
2018-05-01T02:16:04.823Z,1001.58
2018-05-01T02:17:04.779Z,1001.62
2018-05-01T02:18:04.726Z,1001.60
2018-05-01T02:19:04.680Z,1001.62
2018-05-01T02:20:04.634Z,1001.62
2018-05-01T02:21:04.590Z,1001.61
2018-05-01T02:22:04.544Z,1001.62
2018-05-01T02:23:04.498Z,1001.63
2018-05-01T02:24:04.456Z,1001.58
2018-05-01T02:25:04.415Z,1001.61
2018-05-01T02:26:04.363Z,1001.61
2018-05-01T02:27:04.318Z,1001.61
2018-05-01T02:28:04.273Z,1001.61
2018-05-01T02:29:04.228Z,1001.63
2018-05-01T02:30:04.186Z,1001.66
2018-05-01T02:31:04.137Z,1001.62
2018-05-01T02:32:04.092Z,1001.63
2018-05-01T02:33:04.047Z,1001.65
2018-05-01T02:34:04.004Z,1001.68
2018-05-01T02:35:03.956Z,1001.64
2018-05-01T02:36:03.912Z,1001.62
2018-05-01T02:37:03.871Z,1001.64
2018-05-01T02:38:03.820Z,1001.56
2018-05-01T02:39:03.774Z,1001.58
2018-05-01T02:40:03.730Z,1001.60
2018-05-01T02:41:03.684Z,1001.57
2018-05-01T02:42:03.641Z,1001.55
2018-05-01T02:43:03.595Z,1001.53
2018-05-01T02:44:03.547Z,1001.53
2018-05-01T02:45:03.503Z,1001.53
2018-05-01T02:46:03.455Z,1001.56
2018-05-01T02:47:03.411Z,1001.54
2018-05-01T02:48:03.367Z,1001.54
2018-05-01T02:49:03.323Z,1001.48
2018-05-01T02:50:03.274Z,1001.43
2018-05-01T02:51:03.233Z,1001.40
2018-05-01T02:52:03.184Z,1001.41
2018-05-01T02:53:03.139Z,1001.40
2018-05-01T02:54:03.097Z,1001.37
2018-05-01T02:55:03.046Z,1001.40
2018-05-01T02:56:03.002Z,1001.40
2018-05-01T02:57:02.957Z,1001.48
2018-05-01T02:58:02.911Z,1001.50
2018-05-01T02:59:02.865Z,1001.45
2018-05-01T03:00:02.819Z,1001.42
2018-05-01T03:01:02.775Z,1001.40
2018-05-01T03:02:02.728Z,1001.42
2018-05-01T03:03:02.682Z,1001.41
2018-05-01T03:04:02.637Z,1001.36
2018-05-01T03:05:02.592Z,1001.42
2018-05-01T03:06:02.546Z,1001.45
2018-05-01T03:07:02.501Z,1001.42
2018-05-01T03:08:02.515Z,1001.44
2018-05-01T03:09:02.414Z,1001.37
2018-05-01T03:10:02.364Z,1001.43
2018-05-01T03:11:02.318Z,1001.42
2018-05-01T03:12:02.273Z,1001.42
2018-05-01T03:13:02.228Z,1001.43
2018-05-01T03:14:02.181Z,1001.52
2018-05-01T03:15:02.137Z,1001.52
2018-05-01T03:16:02.094Z,1001.52
2018-05-01T03:17:02.046Z,1001.55
2018-05-01T03:18:01.999Z,1001.48
2018-05-01T03:19:01.954Z,1001.46
2018-05-01T03:20:01.912Z,1001.49
2018-05-01T03:21:01.863Z,1001.50
2018-05-01T03:22:01.817Z,1001.49
2018-05-01T03:23:01.771Z,1001.51
2018-05-01T03:24:01.726Z,1001.51
2018-05-01T03:25:01.681Z,1001.51
2018-05-01T03:26:01.637Z,1001.52
2018-05-01T03:27:01.590Z,1001.55
2018-05-01T03:28:01.544Z,1001.59
2018-05-01T03:29:01.508Z,1001.69
2018-05-01T03:30:01.453Z,1001.75
2018-05-01T03:31:01.407Z,1001.79
2018-05-01T03:32:01.362Z,1001.76
2018-05-01T03:33:01.320Z,1001.77
2018-05-01T03:34:01.270Z,1001.79
2018-05-01T03:35:01.237Z,1001.75
2018-05-01T03:36:01.180Z,1001.80
2018-05-01T03:37:01.134Z,1001.84
2018-05-01T03:38:01.088Z,1001.84
2018-05-01T03:39:01.078Z,1001.85
2018-05-01T03:40:00.997Z,1001.88
2018-05-01T03:41:00.951Z,1001.91
2018-05-01T03:42:00.905Z,1001.96
2018-05-01T03:43:00.860Z,1001.95
2018-05-01T03:44:00.818Z,1001.97
2018-05-01T03:45:00.769Z,1001.91
2018-05-01T03:46:00.723Z,1001.92
2018-05-01T03:47:00.677Z,1001.92
2018-05-01T03:48:00.632Z,1001.97
2018-05-01T03:49:00.589Z,1001.92
2018-05-01T03:50:00.540Z,1001.94
2018-05-01T03:51:00.495Z,1002.03
2018-05-01T03:52:00.449Z,1002.07
2018-05-01T03:53:00.405Z,1002.01
2018-05-01T03:54:00.358Z,1002.00
2018-05-01T03:55:00.313Z,1001.99
2018-05-01T03:56:00.298Z,1002.11
2018-05-01T03:57:00.225Z,1002.02
2018-05-01T03:58:00.175Z,1002.10
2018-05-01T03:59:00.130Z,1002.09
2018-05-01T04:00:00.085Z,1002.07
2018-05-01T04:01:00.046Z,1002.13
2018-05-01T04:01:59.994Z,1002.08
2018-05-01T04:02:59.955Z,1002.15
2018-05-01T04:03:59.903Z,1002.14
2018-05-01T04:04:59.883Z,1002.21
2018-05-01T04:05:59.810Z,1002.16
2018-05-01T04:06:59.765Z,1002.15
2018-05-01T04:07:59.720Z,1002.19
2018-05-01T04:08:59.676Z,1002.21
2018-05-01T04:09:59.629Z,1002.24
2018-05-01T04:10:59.583Z,1002.29
2018-05-01T04:11:59.538Z,1002.34
2018-05-01T04:12:59.493Z,1002.36
2018-05-01T04:13:59.446Z,1002.34
2018-05-01T04:14:59.402Z,1002.39
2018-05-01T04:15:59.356Z,1002.43
2018-05-01T04:16:59.311Z,1002.44
2018-05-01T04:17:59.264Z,1002.44
2018-05-01T04:18:59.219Z,1002.51
2018-05-01T04:19:59.179Z,1002.46
2018-05-01T04:20:59.128Z,1002.46
2018-05-01T04:21:59.082Z,1002.53
2018-05-01T04:22:59.049Z,1002.56
2018-05-01T04:23:58.991Z,1002.63
2018-05-01T04:24:58.948Z,1002.62
2018-05-01T04:25:58.899Z,1002.60
2018-05-01T04:26:58.854Z,1002.62
2018-05-01T04:27:58.812Z,1002.63
2018-05-01T04:28:58.764Z,1002.61
2018-05-01T04:29:58.767Z,1002.61
2018-05-01T04:30:58.672Z,1002.64
2018-05-01T04:31:58.626Z,1002.66
2018-05-01T04:32:58.581Z,1002.64
2018-05-01T04:33:58.535Z,1002.63
2018-05-01T04:34:58.491Z,1002.61
2018-05-01T04:35:58.444Z,1002.68
2018-05-01T04:36:58.399Z,1002.67
2018-05-01T04:37:58.353Z,1002.63
2018-05-01T04:38:58.314Z,1002.67
2018-05-01T04:39:58.268Z,1002.64
2018-05-01T04:40:58.267Z,1002.64
2018-05-01T04:41:58.170Z,1002.66
2018-05-01T04:42:58.126Z,1002.64
2018-05-01T04:43:58.081Z,1002.62
2018-05-01T04:44:58.036Z,1002.70
2018-05-01T04:45:58.039Z,1002.62
2018-05-01T04:46:57.944Z,1002.67
2018-05-01T04:47:57.949Z,1002.66
2018-05-01T04:48:57.854Z,1002.69
2018-05-01T04:49:57.807Z,1002.69
2018-05-01T04:50:57.762Z,1002.66
2018-05-01T04:51:57.718Z,1002.68
2018-05-01T04:52:57.671Z,1002.65
2018-05-01T04:53:57.626Z,1002.68
2018-05-01T04:54:57.580Z,1002.71
2018-05-01T04:55:57.535Z,1002.73
2018-05-01T04:56:57.489Z,1002.73
2018-05-01T04:57:57.443Z,1002.67
2018-05-01T04:58:57.398Z,1002.70
2018-05-01T04:59:57.353Z,1002.72
2018-05-01T05:00:57.308Z,1002.74
2018-05-01T05:01:57.262Z,1002.77
2018-05-01T05:02:57.229Z,1002.79
2018-05-01T05:03:57.172Z,1002.78
2018-05-01T05:04:57.126Z,1002.81
2018-05-01T05:05:57.080Z,1002.79
2018-05-01T05:06:57.036Z,1002.97
2018-05-01T05:07:56.991Z,1002.91
2018-05-01T05:08:56.947Z,1002.87
2018-05-01T05:09:56.899Z,1002.80
2018-05-01T05:10:56.861Z,1002.86
2018-05-01T05:11:56.809Z,1002.81
2018-05-01T05:12:56.864Z,1002.82
2018-05-01T05:13:56.718Z,1002.90
2018-05-01T05:14:56.673Z,1002.92
2018-05-01T05:15:56.631Z,1002.95
2018-05-01T05:16:56.583Z,1002.91
2018-05-01T05:17:56.537Z,1002.94
2018-05-01T05:18:56.492Z,1002.88
2018-05-01T05:19:56.448Z,1002.84
2018-05-01T05:20:56.402Z,1002.86
2018-05-01T05:21:56.357Z,1002.85
2018-05-01T05:22:56.312Z,1002.86
2018-05-01T05:23:56.268Z,1002.89
2018-05-01T05:24:56.222Z,1002.93
2018-05-01T05:25:56.177Z,1002.86
2018-05-01T05:26:56.134Z,1002.90
2018-05-01T05:27:56.087Z,1002.95
2018-05-01T05:28:56.042Z,1002.97
2018-05-01T05:29:55.996Z,1002.99
2018-05-01T05:30:55.952Z,1002.97
2018-05-01T05:31:55.912Z,1002.93
2018-05-01T05:32:55.861Z,1003.07
2018-05-01T05:33:55.816Z,1003.21
2018-05-01T05:34:55.772Z,1003.25
2018-05-01T05:35:55.728Z,1002.97
2018-05-01T05:36:55.687Z,1002.94
2018-05-01T05:37:55.636Z,1003.29
2018-05-01T05:38:55.592Z,1003.44
2018-05-01T05:39:55.550Z,1003.10
2018-05-01T05:40:55.502Z,1003.18
2018-05-01T05:41:55.457Z,1003.30
2018-05-01T05:42:55.413Z,1003.69
2018-05-01T05:43:55.368Z,1003.66
2018-05-01T05:44:55.324Z,1003.77
2018-05-01T05:45:55.279Z,1003.73
2018-05-01T05:46:55.234Z,1003.11
2018-05-01T05:47:55.198Z,1003.21
2018-05-01T05:48:55.238Z,1003.76
2018-05-01T05:49:55.105Z,1003.10
2018-05-01T05:50:55.059Z,1003.57
2018-05-01T05:51:55.017Z,1003.80
2018-05-01T05:52:54.972Z,1004.03
2018-05-01T05:53:54.928Z,1004.02
2018-05-01T05:54:54.885Z,1003.23
2018-05-01T05:55:54.842Z,1003.34
2018-05-01T05:56:54.800Z,1003.20
2018-05-01T05:57:54.757Z,1003.13
2018-05-01T05:58:54.714Z,1003.12
2018-05-01T05:59:54.671Z,1003.24
2018-05-01T06:00:54.631Z,1003.35
2018-05-01T06:01:54.586Z,1003.29
2018-05-01T06:02:54.548Z,1003.34
2018-05-01T06:03:54.503Z,1003.47
2018-05-01T06:04:54.461Z,1003.36
2018-05-01T06:05:54.419Z,1003.35
2018-05-01T06:06:54.379Z,1003.40
2018-05-01T06:07:54.338Z,1003.45
2018-05-01T06:08:54.298Z,1003.33
2018-05-01T06:09:54.257Z,1003.42
2018-05-01T06:10:54.218Z,1003.41
2018-05-01T06:11:54.179Z,1003.35
2018-05-01T06:12:54.140Z,1003.41
2018-05-01T06:13:54.104Z,1003.43
2018-05-01T06:14:54.062Z,1003.35
2018-05-01T06:15:54.025Z,1003.51
2018-05-01T06:16:53.988Z,1003.53
2018-05-01T06:17:53.951Z,1003.42
2018-05-01T06:18:53.915Z,1003.56
2018-05-01T06:19:53.876Z,1003.49
2018-05-01T06:20:53.840Z,1003.61
2018-05-01T06:21:53.908Z,1003.68
2018-05-01T06:22:53.766Z,1003.62
2018-05-01T06:23:53.780Z,1003.71
2018-05-01T06:24:53.695Z,1003.81
2018-05-01T06:25:53.659Z,1003.75
2018-05-01T06:26:53.624Z,1003.74
2018-05-01T06:27:53.591Z,1003.79
2018-05-01T06:28:53.554Z,1003.88
2018-05-01T06:29:53.543Z,1003.78
2018-05-01T06:30:53.482Z,1003.98
2018-05-01T06:31:53.448Z,1003.96
2018-05-01T06:32:53.413Z,1003.85
2018-05-01T06:33:53.378Z,1003.91
2018-05-01T06:34:53.343Z,1003.82
2018-05-01T06:35:53.309Z,1003.77
2018-05-01T06:36:53.280Z,1003.84
2018-05-01T06:37:53.239Z,1003.82
2018-05-01T06:38:53.205Z,1003.88
2018-05-01T06:39:53.173Z,1003.72
2018-05-01T06:40:53.136Z,1003.79
2018-05-01T06:41:53.102Z,1003.78
2018-05-01T06:42:53.068Z,1003.72
2018-05-01T06:43:53.041Z,1003.79
2018-05-01T06:44:53.000Z,1003.82
2018-05-01T06:45:52.966Z,1003.79
2018-05-01T06:46:52.932Z,1003.87
2018-05-01T06:47:52.899Z,1003.88
2018-05-01T06:48:52.865Z,1004.02
2018-05-01T06:49:52.831Z,1004.06
2018-05-01T06:50:52.798Z,1004.17
2018-05-01T06:51:52.765Z,1004.25
2018-05-01T06:52:52.733Z,1004.15
2018-05-01T06:53:52.697Z,1004.10
2018-05-01T06:54:52.664Z,1003.50
2018-05-01T06:55:52.631Z,1004.38
2018-05-01T06:56:52.600Z,1003.68
2018-05-01T06:57:52.580Z,1004.63
2018-05-01T06:58:52.531Z,1004.12
2018-05-01T06:59:52.501Z,1004.75
2018-05-01T07:00:52.464Z,1004.58
2018-05-01T07:01:52.431Z,1003.56
2018-05-01T07:02:52.398Z,1004.81
2018-05-01T07:03:52.364Z,1004.61
2018-05-01T07:04:52.332Z,1003.40
2018-05-01T07:05:52.298Z,1004.37
2018-05-01T07:06:52.280Z,1004.12
2018-05-01T07:07:52.232Z,1003.97
2018-05-01T07:08:52.200Z,1003.92
2018-05-01T07:09:52.166Z,1003.92
2018-05-01T07:10:52.133Z,1003.88
2018-05-01T07:11:52.100Z,1003.92
2018-05-01T07:12:52.068Z,1003.99
2018-05-01T07:13:52.034Z,1004.00
2018-05-01T07:14:52.002Z,1004.01
2018-05-01T07:15:52.062Z,1004.03
2018-05-01T07:16:51.990Z,1004.03
2018-05-01T07:17:51.905Z,1004.08
2018-05-01T07:18:51.887Z,1004.02
2018-05-01T07:19:51.843Z,1003.95
2018-05-01T07:20:51.814Z,1003.95
2018-05-01T07:21:51.780Z,1003.95
2018-05-01T07:22:51.749Z,1004.05
2018-05-01T07:23:51.718Z,1004.01
2018-05-01T07:24:51.687Z,1004.09
2018-05-01T07:25:51.705Z,1003.91
2018-05-01T07:26:51.624Z,1004.05
2018-05-01T07:27:51.593Z,1004.13
2018-05-01T07:28:51.564Z,1003.76
2018-05-01T07:29:51.531Z,1004.34
2018-05-01T07:30:51.500Z,1004.03
2018-05-01T07:31:51.519Z,1004.28
2018-05-01T07:32:51.438Z,1004.39
2018-05-01T07:33:51.406Z,1004.26
2018-05-01T07:34:51.376Z,1004.36
2018-05-01T07:35:51.344Z,1004.46
2018-05-01T07:36:51.314Z,1004.20
2018-05-01T07:37:51.282Z,1004.37
2018-05-01T07:38:51.251Z,1004.45
2018-05-01T07:39:51.221Z,1004.44
2018-05-01T07:40:51.189Z,1004.43
2018-05-01T07:41:51.180Z,1004.33
2018-05-01T07:42:51.127Z,1004.22
2018-05-01T07:43:51.096Z,1004.43
2018-05-01T07:44:51.065Z,1004.48
2018-05-01T07:45:51.033Z,1004.42
2018-05-01T07:46:51.003Z,1004.42
2018-05-01T07:47:50.970Z,1004.24
2018-05-01T07:48:50.944Z,1004.34
2018-05-01T07:49:50.906Z,1004.28
2018-05-01T07:50:50.874Z,1004.33
2018-05-01T07:51:50.842Z,1004.13
2018-05-01T07:52:50.809Z,1004.21
2018-05-01T07:53:50.777Z,1004.41
2018-05-01T07:54:50.745Z,1004.11
2018-05-01T07:55:50.712Z,1004.34
2018-05-01T07:56:50.682Z,1004.48
2018-05-01T07:57:50.645Z,1004.46
2018-05-01T07:58:50.613Z,1004.33
2018-05-01T07:59:50.579Z,1004.54
2018-05-01T08:00:50.546Z,1004.45
2018-05-01T08:01:50.512Z,1004.35
2018-05-01T08:02:50.478Z,1004.19
2018-05-01T08:03:50.444Z,1004.14
2018-05-01T08:04:50.411Z,1004.17
2018-05-01T08:05:50.376Z,1004.31
2018-05-01T08:06:50.343Z,1004.43
2018-05-01T08:07:50.308Z,1004.52
2018-05-01T08:08:50.274Z,1004.39
2018-05-01T08:09:50.239Z,1004.24
2018-05-01T08:10:50.204Z,1004.27
2018-05-01T08:11:50.753Z,1004.16
2018-05-01T08:12:50.134Z,1004.11
2018-05-01T08:13:50.102Z,1004.65
2018-05-01T08:14:50.062Z,1004.27
2018-05-01T08:15:50.027Z,1004.34
2018-05-01T08:16:49.990Z,1004.18
2018-05-01T08:17:50.053Z,1004.25
2018-05-01T08:18:49.916Z,1004.30
2018-05-01T08:19:49.884Z,1004.29
2018-05-01T08:20:49.843Z,1004.22
2018-05-01T08:21:49.803Z,1004.19
2018-05-01T08:22:49.817Z,1004.33
2018-05-01T08:23:49.727Z,1004.23
2018-05-01T08:24:49.689Z,1004.37
2018-05-01T08:25:49.650Z,1004.31
2018-05-01T08:26:49.611Z,1004.40
2018-05-01T08:27:49.573Z,1004.35
2018-05-01T08:28:49.533Z,1004.37
2018-05-01T08:29:49.494Z,1004.57
2018-05-01T08:30:49.454Z,1004.53
2018-05-01T08:31:49.414Z,1004.38
2018-05-01T08:32:49.377Z,1004.44
2018-05-01T08:33:49.336Z,1004.51
2018-05-01T08:34:49.295Z,1004.55
2018-05-01T08:35:49.256Z,1004.38
2018-05-01T08:36:49.216Z,1004.38
2018-05-01T08:37:49.175Z,1004.57
2018-05-01T08:38:49.136Z,1004.39
2018-05-01T08:39:49.097Z,1004.51
2018-05-01T08:40:49.057Z,1004.56
2018-05-01T08:41:49.017Z,1004.56
2018-05-01T08:42:48.979Z,1004.56
2018-05-01T08:43:48.938Z,1004.45
2018-05-01T08:44:48.898Z,1004.52
2018-05-01T08:45:48.858Z,1004.32
2018-05-01T08:46:48.818Z,1004.39
2018-05-01T08:47:48.779Z,1004.29
2018-05-01T08:48:48.739Z,1004.30
2018-05-01T08:49:48.698Z,1004.34
2018-05-01T08:50:48.659Z,1004.41
2018-05-01T08:51:48.619Z,1004.43
2018-05-01T08:52:48.579Z,1004.42
2018-05-01T08:53:48.538Z,1004.63
2018-05-01T08:54:48.512Z,1004.85
2018-05-01T08:55:48.459Z,1004.79
2018-05-01T08:56:48.417Z,1004.53
2018-05-01T08:57:48.376Z,1004.78
2018-05-01T08:58:48.341Z,1004.67
2018-05-01T08:59:48.296Z,1004.97
2018-05-01T09:00:48.257Z,1004.90
2018-05-01T09:01:48.217Z,1004.85
2018-05-01T09:02:48.179Z,1004.65
2018-05-01T09:03:48.141Z,1004.70
2018-05-01T09:04:48.104Z,1004.58
2018-05-01T09:05:48.066Z,1004.67
2018-05-01T09:06:48.030Z,1004.65
2018-05-01T09:07:47.994Z,1004.51
2018-05-01T09:08:47.958Z,1004.62
2018-05-01T09:09:47.922Z,1004.49
2018-05-01T09:10:47.889Z,1004.62
2018-05-01T09:11:47.854Z,1004.38
2018-05-01T09:12:47.821Z,1004.49
2018-05-01T09:13:47.785Z,1004.61
2018-05-01T09:14:47.751Z,1004.74
2018-05-01T09:15:47.718Z,1004.53
2018-05-01T09:16:47.684Z,1004.35
2018-05-01T09:17:47.759Z,1004.63
2018-05-01T09:18:47.617Z,1004.62
2018-05-01T09:19:47.592Z,1004.55
2018-05-01T09:20:47.551Z,1004.54
2018-05-01T09:21:47.517Z,1004.57
2018-05-01T09:22:47.485Z,1004.63
2018-05-01T09:23:47.452Z,1004.40
2018-05-01T09:24:47.421Z,1004.67
2018-05-01T09:25:47.387Z,1004.46
2018-05-01T09:26:47.355Z,1004.45
2018-05-01T09:27:47.330Z,1004.74
2018-05-01T09:28:47.294Z,1004.85
2018-05-01T09:29:47.264Z,1004.66
2018-05-01T09:30:47.229Z,1004.93
2018-05-01T09:31:47.196Z,1004.73
2018-05-01T09:32:47.165Z,1004.76
2018-05-01T09:33:47.131Z,1004.77
2018-05-01T09:34:47.100Z,1004.73
2018-05-01T09:35:47.069Z,1004.71
2018-05-01T09:36:47.037Z,1004.78
2018-05-01T09:37:47.005Z,1004.87
2018-05-01T09:38:46.973Z,1004.74
2018-05-01T09:39:46.942Z,1004.75
2018-05-01T09:40:46.911Z,1004.69
2018-05-01T09:41:46.886Z,1004.74
2018-05-01T09:42:46.848Z,1004.80
2018-05-01T09:43:46.817Z,1004.67
2018-05-01T09:44:46.785Z,1004.58
2018-05-01T09:45:46.762Z,1004.65
2018-05-01T09:46:46.722Z,1004.66
2018-05-01T09:47:46.690Z,1004.62
2018-05-01T09:48:46.660Z,1004.65
2018-05-01T09:49:46.625Z,1004.58
2018-05-01T09:50:46.592Z,1004.65
2018-05-01T09:51:46.577Z,1004.60
2018-05-01T09:52:46.524Z,1004.58
2018-05-01T09:53:46.489Z,1004.54
2018-05-01T09:54:46.454Z,1004.62
2018-05-01T09:55:46.420Z,1004.58
2018-05-01T09:56:46.385Z,1004.54
2018-05-01T09:57:46.348Z,1004.61
2018-05-01T09:58:46.312Z,1004.67
2018-05-01T09:59:46.275Z,1004.70
2018-05-01T10:00:46.237Z,1004.68
2018-05-01T10:01:46.209Z,1004.61
2018-05-01T10:02:46.161Z,1004.62
2018-05-01T10:03:46.128Z,1004.63
2018-05-01T10:04:46.085Z,1004.66
2018-05-01T10:05:46.045Z,1004.65
2018-05-01T10:06:46.007Z,1004.74
2018-05-01T10:07:45.967Z,1004.65
2018-05-01T10:08:45.929Z,1004.68
2018-05-01T10:09:45.887Z,1004.61
2018-05-01T10:10:45.849Z,1004.62
2018-05-01T10:11:45.808Z,1004.72
2018-05-01T10:12:45.774Z,1004.77
2018-05-01T10:13:45.728Z,1004.78
2018-05-01T10:14:45.690Z,1004.68
2018-05-01T10:15:45.647Z,1004.73
2018-05-01T10:16:45.606Z,1004.66
2018-05-01T10:17:45.565Z,1004.73
2018-05-01T10:18:45.525Z,1004.80
2018-05-01T10:19:45.488Z,1004.74
2018-05-01T10:20:45.444Z,1004.83
2018-05-01T10:21:45.405Z,1004.66
2018-05-01T10:22:45.361Z,1004.70
2018-05-01T10:23:45.320Z,1004.69
2018-05-01T10:24:45.280Z,1004.78
2018-05-01T10:25:45.238Z,1004.78
2018-05-01T10:26:45.197Z,1004.75
2018-05-01T10:27:45.156Z,1004.70
2018-05-01T10:28:45.219Z,1004.74
2018-05-01T10:29:45.172Z,1004.70
2018-05-01T10:30:45.033Z,1004.68
2018-05-01T10:31:44.991Z,1004.80
2018-05-01T10:32:44.952Z,1004.76
2018-05-01T10:33:44.907Z,1004.75
2018-05-01T10:34:44.866Z,1004.86
2018-05-01T10:35:44.824Z,1004.79
2018-05-01T10:36:44.833Z,1004.83
2018-05-01T10:37:44.740Z,1004.81
2018-05-01T10:38:44.736Z,1004.73
2018-05-01T10:39:44.658Z,1004.79
2018-05-01T10:40:44.616Z,1004.77
2018-05-01T10:41:44.574Z,1004.73
2018-05-01T10:42:44.532Z,1004.76
2018-05-01T10:43:44.490Z,1004.72
2018-05-01T10:44:44.502Z,1004.76
2018-05-01T10:45:44.450Z,1004.84
2018-05-01T10:46:44.365Z,1004.80
2018-05-01T10:47:44.324Z,1004.71
2018-05-01T10:48:44.282Z,1004.74
2018-05-01T10:49:44.240Z,1004.86
2018-05-01T10:50:44.198Z,1004.82
2018-05-01T10:51:44.157Z,1004.82
2018-05-01T10:52:44.116Z,1004.80
2018-05-01T10:53:44.073Z,1004.74
2018-05-01T10:54:44.056Z,1004.74
2018-05-01T10:55:43.990Z,1004.81
2018-05-01T10:56:43.947Z,1004.86
2018-05-01T10:57:43.905Z,1004.76
2018-05-01T10:58:43.867Z,1004.81
2018-05-01T10:59:43.822Z,1004.85
2018-05-01T11:00:43.781Z,1004.81
2018-05-01T11:01:43.738Z,1004.75
2018-05-01T11:02:43.697Z,1004.76
2018-05-01T11:03:43.655Z,1004.77
2018-05-01T11:04:43.617Z,1004.79
2018-05-01T11:05:43.571Z,1004.86
2018-05-01T11:06:43.529Z,1004.77
2018-05-01T11:07:43.489Z,1004.81
2018-05-01T11:08:43.446Z,1004.73
2018-05-01T11:09:43.406Z,1004.74
2018-05-01T11:10:43.361Z,1004.67
2018-05-01T11:11:43.320Z,1004.75
2018-05-01T11:12:43.278Z,1004.82
2018-05-01T11:13:43.286Z,1004.80
2018-05-01T11:14:43.194Z,1004.93
2018-05-01T11:15:43.152Z,1004.87
2018-05-01T11:16:43.111Z,1004.98
2018-05-01T11:17:43.068Z,1004.95
2018-05-01T11:18:43.029Z,1004.94
2018-05-01T11:19:42.985Z,1004.96
2018-05-01T11:20:42.947Z,1004.87
2018-05-01T11:21:42.902Z,1004.91
2018-05-01T11:22:42.862Z,1004.91
2018-05-01T11:23:42.823Z,1004.83
2018-05-01T11:24:42.792Z,1004.85
2018-05-01T11:25:42.735Z,1004.93
2018-05-01T11:26:42.695Z,1004.90
2018-05-01T11:27:42.650Z,1005.02
2018-05-01T11:28:42.611Z,1004.88
2018-05-01T11:29:42.566Z,1004.95
2018-05-01T11:30:42.524Z,1005.04
2018-05-01T11:31:42.482Z,1005.03
2018-05-01T11:32:42.440Z,1005.01
2018-05-01T11:33:42.475Z,1005.02
2018-05-01T11:34:42.355Z,1004.97
2018-05-01T11:35:42.313Z,1004.98
2018-05-01T11:36:42.272Z,1005.02
2018-05-01T11:37:42.229Z,1005.04
2018-05-01T11:38:42.187Z,1005.03
2018-05-01T11:39:42.145Z,1005.12
2018-05-01T11:40:42.104Z,1005.23
2018-05-01T11:41:42.061Z,1005.28
2018-05-01T11:42:42.019Z,1005.26
2018-05-01T11:43:41.977Z,1005.24
2018-05-01T11:44:41.936Z,1005.18
2018-05-01T11:45:41.893Z,1005.17
2018-05-01T11:46:41.851Z,1005.25
2018-05-01T11:47:41.809Z,1005.31
2018-05-01T11:48:41.769Z,1005.28
2018-05-01T11:49:41.725Z,1005.18
2018-05-01T11:50:41.684Z,1005.24
2018-05-01T11:51:41.641Z,1005.35
2018-05-01T11:52:41.600Z,1005.43
2018-05-01T11:53:41.648Z,1005.35
2018-05-01T11:54:41.516Z,1005.36
2018-05-01T11:55:41.474Z,1005.40
2018-05-01T11:56:41.433Z,1005.48
2018-05-01T11:57:41.389Z,1005.46
2018-05-01T11:58:41.351Z,1005.42
2018-05-01T11:59:41.306Z,1005.40
2018-05-01T12:00:41.264Z,1005.47
2018-05-01T12:01:41.222Z,1005.42
2018-05-01T12:02:41.267Z,1005.46
2018-05-01T12:03:41.138Z,1005.49
2018-05-01T12:04:41.097Z,1005.57